Time;durP1;ratioP1;P1;durP2;ratioP2;P2;SDS_P1;SDS_P2;PMS_P1;PMS_P2;Temp;Humidity;BMP_temperature;BMP_pressure;BME280_temperature;BME280_humidity;BME280_pressure;Samples;Min_cycle;Max_cycle;Signal;HPM_P1;HPM_P2
2022/11/24 00:01:14;;;;;;;15.85;14.05;;;9.80;1.00;;;;;;5030178;28;20369;-61
2022/11/24 00:03:40;;;;;;;17.30;14.65;;;9.80;1.00;;;;;;5024819;28;20375;-61
2022/11/24 00:06:08;;;;;;;19.65;14.40;;;9.70;1.00;;;;;;5029433;28;20021;-61
2022/11/24 00:08:34;;;;;;;18.27;15.45;;;9.80;1.00;;;;;;5023082;28;20018;-61
2022/11/24 00:11:08;;;;;;;17.48;14.48;;;9.70;1.00;;;;;;5031679;28;20021;-61
2022/11/24 00:13:34;;;;;;;17.15;12.93;;;9.60;1.00;;;;;;5023788;28;20068;-60
2022/11/24 00:16:23;;;;;;;16.02;12.63;;;9.60;1.00;;;;;;5031372;28;20024;-60
2022/11/24 00:18:51;;;;;;;17.98;12.93;;;9.70;1.00;;;;;;5027600;28;20111;-60
2022/11/24 00:21:18;;;;;;;16.65;13.38;;;9.60;1.00;;;;;;5020304;28;20030;-60
2022/11/24 00:23:45;;;;;;;20.48;14.10;;;9.70;1.00;;;;;;5019673;28;20038;-60
2022/11/24 00:26:12;;;;;;;16.48;12.80;;;9.60;1.00;;;;;;5034784;28;20426;-60
2022/11/24 00:28:38;;;;;;;14.75;11.55;;;9.60;1.00;;;;;;5022543;28;20049;-61
2022/11/24 00:31:18;;;;;;;14.55;12.50;;;9.70;1.00;;;;;;5034087;28;20501;-60
2022/11/24 00:33:45;;;;;;;15.30;12.43;;;9.60;1.00;;;;;;5021530;28;20033;-60
2022/11/24 00:36:11;;;;;;;19.88;13.40;;;9.70;1.00;;;;;;5032044;28;20385;-61
2022/11/24 00:38:37;;;;;;;17.02;12.70;;;9.70;1.00;;;;;;5026255;28;20033;-61
2022/11/24 00:41:03;;;;;;;15.35;12.15;;;9.70;1.00;;;;;;5018696;28;20018;-60
2022/11/24 00:43:28;;;;;;;14.45;11.18;;;9.70;1.00;;;;;;5011134;28;20056;-60
2022/11/24 00:45:54;;;;;;;19.08;12.07;;;9.60;1.00;;;;;;5012343;28;20025;-60
2022/11/24 00:48:19;;;;;;;15.13;11.13;;;9.60;1.00;;;;;;5011593;28;20034;-60
2022/11/24 00:50:55;;;;;;;16.00;11.43;;;9.50;1.00;;;;;;5013357;28;20029;-60
2022/11/24 00:53:20;;;;;;;16.65;12.60;;;9.30;1.00;;;;;;5014051;28;20022;-60
2022/11/24 00:55:48;;;;;;;14.95;12.50;;;9.40;1.00;;;;;;5014589;28;20050;-60
2022/11/24 00:58:14;;;;;;;13.23;10.60;;;9.50;1.00;;;;;;5014156;28;20069;-60
2022/11/24 01:00:40;;;;;;;15.27;12.23;;;9.50;1.00;;;;;;5014294;28;20049;-60
2022/11/24 01:03:06;;;;;;;15.38;12.02;;;9.50;1.00;;;;;;5018320;28;20029;-60
2022/11/24 01:05:35;;;;;;;15.02;11.38;;;9.50;1.00;;;;;;5034226;28;20431;-60
2022/11/24 01:08:01;;;;;;;12.35;10.90;;;9.50;1.00;;;;;;5016414;28;20032;-60
2022/11/24 01:10:27;;;;;;;12.07;10.23;;;9.50;1.00;;;;;;5014301;28;20021;-60
2022/11/24 01:12:52;;;;;;;13.32;10.90;;;9.50;1.00;;;;;;5022048;28;20111;-60
2022/11/24 01:15:18;;;;;;;13.35;10.93;;;9.50;1.00;;;;;;5033946;28;20025;-60
2022/11/24 01:17:43;;;;;;;13.65;11.05;;;9.50;1.00;;;;;;5019240;28;20026;-60
2022/11/24 01:20:09;;;;;;;13.20;11.80;;;9.20;1.00;;;;;;5032275;28;20163;-60
2022/11/24 01:22:37;;;;;;;15.38;10.95;;;9.40;1.00;;;;;;5024220;28;20029;-61
2022/11/24 01:25:03;;;;;;;15.02;10.70;;;9.40;1.00;;;;;;5016994;28;20412;-60
2022/11/24 01:27:29;;;;;;;11.32;10.00;;;9.30;1.00;;;;;;5013600;28;20092;-60
2022/11/24 01:29:54;;;;;;;13.23;10.65;;;9.30;1.00;;;;;;5013690;28;20144;-60
2022/11/24 01:32:20;;;;;;;15.20;10.32;;;9.30;1.00;;;;;;5013726;28;20448;-60
2022/11/24 01:34:46;;;;;;;12.82;10.30;;;9.10;1.00;;;;;;5013803;28;20026;-61
2022/11/24 01:37:11;;;;;;;12.27;9.70;;;8.80;1.00;;;;;;5013492;28;20056;-61
2022/11/24 01:39:37;;;;;;;13.05;9.70;;;9.00;1.00;;;;;;5031392;28;20033;-61
2022/11/24 01:42:02;;;;;;;12.00;9.32;;;9.10;1.00;;;;;;5020577;28;20064;-59
2022/11/24 01:44:29;;;;;;;11.15;9.30;;;8.90;1.00;;;;;;5011638;28;20058;-59
2022/11/24 01:47:30;;;;;;;11.15;9.55;;;8.70;1.00;;;;;;5013374;28;20426;-59
2022/11/24 01:49:58;;;;;;;12.57;8.80;;;8.80;1.00;;;;;;5031852;28;20375;-59
2022/11/24 01:52:51;;;;;;;11.60;9.13;;;9.00;1.00;;;;;;5027643;28;20076;-59
2022/11/24 01:55:21;;;;;;;11.45;8.90;;;9.10;1.00;;;;;;5031854;28;20017;-59
2022/11/24 01:57:52;;;;;;;14.10;8.95;;;9.10;1.00;;;;;;5027015;28;20410;-59
2022/11/24 02:00:18;;;;;;;10.20;8.35;;;9.10;1.00;;;;;;5027235;28;20021;-59
2022/11/24 02:02:44;;;;;;;11.55;8.00;;;9.20;1.00;;;;;;5024623;28;20486;-59
2022/11/24 02:05:41;;;;;;;8.75;6.80;;;9.10;1.00;;;;;;5030618;28;20517;-59
2022/11/24 02:08:19;;;;;;;9.40;7.97;;;9.10;1.00;;;;;;5021183;28;20141;-59
2022/11/24 02:10:46;;;;;;;9.30;7.10;;;9.10;1.00;;;;;;5008330;28;20206;-59
2022/11/24 02:13:13;;;;;;;9.93;7.60;;;9.20;1.00;;;;;;5026455;28;20069;-58
2022/11/24 02:15:39;;;;;;;9.93;6.47;;;9.00;1.00;;;;;;5032522;28;20152;-59
2022/11/24 02:18:04;;;;;;;8.88;6.70;;;9.10;1.00;;;;;;5025611;28;20125;-58
2022/11/24 02:20:30;;;;;;;7.95;6.65;;;9.10;1.00;;;;;;5030470;28;20443;-58
2022/11/24 02:23:01;;;;;;;10.80;7.80;;;9.10;1.00;;;;;;5021415;28;20678;-57
2022/11/24 02:25:41;;;;;;;8.43;6.43;;;9.00;1.00;;;;;;5014031;28;20034;-58
2022/11/24 02:28:11;;;;;;;8.32;6.18;;;8.90;1.00;;;;;;5018711;28;20499;-57
2022/11/24 02:30:37;;;;;;;8.30;6.13;;;8.80;1.00;;;;;;5025815;28;20073;-58
2022/11/24 02:33:03;;;;;;;8.68;6.25;;;8.90;1.00;;;;;;5011577;28;20034;-58
2022/11/24 02:35:28;;;;;;;8.73;6.90;;;8.90;1.00;;;;;;5020246;28;20104;-59
2022/11/24 02:37:54;;;;;;;9.37;6.70;;;9.00;1.00;;;;;;5026694;28;20068;-58
2022/11/24 02:40:24;;;;;;;7.80;6.23;;;9.00;1.00;;;;;;5030208;28;20030;-59
2022/11/24 02:42:53;;;;;;;9.18;6.57;;;9.00;1.00;;;;;;5028086;28;20050;-58
2022/11/24 02:45:20;;;;;;;8.53;6.33;;;9.10;1.00;;;;;;5031048;28;20079;-59
2022/11/24 02:47:46;;;;;;;8.15;6.85;;;9.00;1.00;;;;;;5028646;28;20033;-58
2022/11/24 02:50:12;;;;;;;8.30;6.38;;;9.00;1.00;;;;;;5015449;28;20086;-59
2022/11/24 02:52:37;;;;;;;8.60;6.40;;;9.00;1.00;;;;;;5027926;28;20109;-59
2022/11/24 02:55:03;;;;;;;8.48;6.18;;;9.10;1.00;;;;;;5027642;28;20033;-59
2022/11/24 02:57:29;;;;;;;9.97;7.60;;;9.00;1.00;;;;;;5029439;28;20037;-58
2022/11/24 02:59:55;;;;;;;9.10;6.10;;;9.00;1.00;;;;;;5025713;28;20049;-59
2022/11/24 03:02:21;;;;;;;9.48;6.20;;;9.00;1.00;;;;;;5030670;28;20171;-59
2022/11/24 03:04:46;;;;;;;8.05;6.55;;;9.00;1.00;;;;;;5023819;28;20048;-59
2022/11/24 03:07:12;;;;;;;7.50;6.50;;;9.00;1.00;;;;;;5026273;28;20072;-59
2022/11/24 03:09:38;;;;;;;8.57;6.07;;;8.90;1.00;;;;;;5021678;28;20029;-59
2022/11/24 03:12:03;;;;;;;7.88;6.35;;;9.00;1.00;;;;;;5030185;28;20049;-60
2022/11/24 03:14:29;;;;;;;7.93;6.22;;;9.10;1.00;;;;;;5001932;28;20032;-57
2022/11/24 03:16:54;;;;;;;8.98;6.43;;;9.00;1.00;;;;;;5030191;28;20029;-58
2022/11/24 03:19:20;;;;;;;7.18;6.47;;;9.00;1.00;;;;;;5017502;28;20125;-59
2022/11/24 03:21:46;;;;;;;8.57;6.55;;;9.00;1.00;;;;;;5028077;28;20498;-59
2022/11/24 03:24:11;;;;;;;8.40;6.80;;;9.00;1.00;;;;;;5029552;28;20030;-59
2022/11/24 03:26:37;;;;;;;8.17;6.70;;;9.00;1.00;;;;;;5029589;28;20064;-58
2022/11/24 03:29:02;;;;;;;8.47;5.50;;;9.00;1.00;;;;;;5027251;28;20033;-59
2022/11/24 03:31:28;;;;;;;7.07;5.97;;;9.00;1.00;;;;;;5029210;28;20448;-59
2022/11/24 03:33:54;;;;;;;9.43;6.33;;;9.10;1.00;;;;;;5011790;28;20066;-59
2022/11/24 03:36:19;;;;;;;7.43;6.57;;;9.00;1.00;;;;;;5010001;28;20117;-59
2022/11/24 03:38:45;;;;;;;10.70;6.37;;;9.00;1.00;;;;;;5010471;28;20046;-59
2022/11/24 03:41:10;;;;;;;6.82;5.95;;;9.00;1.00;;;;;;5027786;28;20075;-59
2022/11/24 03:43:36;;;;;;;10.93;6.38;;;9.00;1.00;;;;;;5031400;28;20049;-58
2022/11/24 03:46:02;;;;;;;7.55;5.97;;;8.90;1.00;;;;;;5027861;28;20029;-58
2022/11/24 03:48:27;;;;;;;9.85;6.70;;;8.90;1.00;;;;;;5031462;28;20038;-59
2022/11/24 03:51:00;;;;;;;7.18;5.72;;;9.00;1.00;;;;;;5024485;28;20026;-59
2022/11/24 03:53:29;;;;;;;7.37;5.30;;;8.80;1.00;;;;;;5031387;28;20451;-59
2022/11/24 03:55:54;;;;;;;8.43;6.38;;;8.90;1.00;;;;;;5022501;28;20028;-57
2022/11/24 03:58:20;;;;;;;6.60;5.75;;;8.90;1.00;;;;;;5033109;28;20100;-59
2022/11/24 04:00:48;;;;;;;8.60;6.38;;;8.80;1.00;;;;;;5028614;28;20057;-59
2022/11/24 04:03:14;;;;;;;8.02;6.50;;;8.90;1.00;;;;;;5029916;28;20116;-59
2022/11/24 04:05:40;;;;;;;6.20;5.57;;;8.90;1.00;;;;;;5026152;28;20122;-58
2022/11/24 04:08:06;;;;;;;8.35;6.47;;;8.80;1.00;;;;;;5032791;28;20080;-59
2022/11/24 04:10:34;;;;;;;8.27;6.35;;;8.90;1.00;;;;;;5023930;28;20025;-57
2022/11/24 04:13:00;;;;;;;7.57;6.00;;;8.80;1.00;;;;;;5032719;28;20072;-58
2022/11/24 04:15:25;;;;;;;7.35;5.88;;;8.90;1.00;;;;;;5021764;28;20040;-55
2022/11/24 04:17:54;;;;;;;7.13;5.72;;;8.90;1.00;;;;;;5021318;28;20033;-59
2022/11/24 04:20:20;;;;;;;8.38;6.07;;;8.80;1.00;;;;;;5034331;28;20053;-58
2022/11/24 04:22:45;;;;;;;8.48;7.05;;;8.70;1.00;;;;;;5022974;28;20041;-59
2022/11/24 04:25:11;;;;;;;7.80;5.90;;;8.70;1.00;;;;;;5032126;28;20033;-59
2022/11/24 04:27:37;;;;;;;9.10;6.50;;;8.70;1.00;;;;;;5023945;28;20088;-59
2022/11/24 04:30:05;;;;;;;8.48;6.25;;;8.80;1.00;;;;;;5030254;28;20074;-58
2022/11/24 04:32:30;;;;;;;7.97;5.78;;;8.80;1.00;;;;;;5031801;28;20036;-57
2022/11/24 04:34:56;;;;;;;7.75;6.03;;;8.80;1.00;;;;;;5024705;28;20025;-58
2022/11/24 04:37:22;;;;;;;6.97;5.27;;;8.70;1.00;;;;;;5022716;28;20041;-58
2022/11/24 04:39:47;;;;;;;7.18;5.53;;;8.70;1.00;;;;;;5033015;28;20148;-58
2022/11/24 04:42:13;;;;;;;7.88;5.45;;;8.70;1.00;;;;;;5026378;28;20029;-57
2022/11/24 04:44:38;;;;;;;6.80;5.65;;;8.70;1.00;;;;;;5033990;28;20063;-58
2022/11/24 04:47:05;;;;;;;6.55;5.47;;;8.70;1.00;;;;;;5026295;28;20498;-59
2022/11/24 04:49:30;;;;;;;8.25;6.00;;;8.60;1.00;;;;;;5034129;28;20467;-58
2022/11/24 04:51:56;;;;;;;6.47;5.35;;;8.30;1.00;;;;;;5025612;28;20021;-57
2022/11/24 04:54:22;;;;;;;8.55;6.13;;;8.30;1.00;;;;;;5034389;28;20030;-58
2022/11/24 04:56:51;;;;;;;7.80;5.37;;;8.50;1.00;;;;;;5024817;28;20361;-58
2022/11/24 04:59:17;;;;;;;7.00;5.40;;;8.50;1.00;;;;;;5030386;28;20120;-59
2022/11/24 05:01:45;;;;;;;5.87;5.27;;;8.50;1.00;;;;;;5028701;28;20090;-60
2022/11/24 05:04:12;;;;;;;9.57;5.85;;;8.40;1.00;;;;;;5033623;28;20059;-58
2022/11/24 05:06:38;;;;;;;9.57;5.90;;;8.20;1.00;;;;;;5030417;28;20518;-58
2022/11/24 05:09:07;;;;;;;8.07;6.05;;;8.30;1.00;;;;;;5033338;28;20116;-57
2022/11/24 05:11:33;;;;;;;7.03;5.80;;;8.30;1.00;;;;;;5029466;28;20028;-58
2022/11/24 05:13:59;;;;;;;8.25;6.60;;;8.30;1.00;;;;;;5018897;28;20034;-58
2022/11/24 05:16:25;;;;;;;7.90;6.20;;;8.40;1.00;;;;;;5023586;28;20490;-58
2022/11/24 05:18:50;;;;;;;6.28;5.68;;;8.40;1.00;;;;;;5013480;28;20049;-59
2022/11/24 05:21:16;;;;;;;7.80;6.00;;;8.30;1.00;;;;;;5029414;28;20064;-58
2022/11/24 05:23:41;;;;;;;8.53;6.07;;;8.20;1.00;;;;;;5027849;28;20029;-56
2022/11/24 05:26:07;;;;;;;7.10;6.30;;;8.10;1.00;;;;;;5025835;28;20056;-56
2022/11/24 05:28:33;;;;;;;8.23;5.83;;;8.10;1.00;;;;;;5022208;28;20021;-57
2022/11/24 05:31:02;;;;;;;6.93;5.97;;;8.20;1.00;;;;;;5033450;28;20047;-58
2022/11/24 05:33:28;;;;;;;9.43;6.30;;;8.10;1.00;;;;;;5020277;28;20030;-58
2022/11/24 05:35:55;;;;;;;7.30;5.83;;;8.20;1.00;;;;;;5017081;28;20053;-59
2022/11/24 05:38:23;;;;;;;8.03;6.67;;;8.00;1.00;;;;;;5031286;28;20066;-60
2022/11/24 05:40:49;;;;;;;10.07;5.80;;;8.00;1.00;;;;;;5012920;28;20498;-58
2022/11/24 05:43:16;;;;;;;8.45;5.95;;;8.10;1.00;;;;;;5010516;28;20054;-57
2022/11/24 05:45:42;;;;;;;9.17;6.10;;;8.10;1.00;;;;;;5010357;28;20048;-58
2022/11/24 05:48:11;;;;;;;7.43;5.87;;;8.10;1.00;;;;;;5010455;28;20036;-58
2022/11/24 05:50:36;;;;;;;6.50;5.60;;;8.00;1.00;;;;;;5011798;28;20376;-59
2022/11/24 05:53:12;;;;;;;7.80;6.43;;;7.90;1.00;;;;;;5012358;28;20142;-58
2022/11/24 05:55:39;;;;;;;7.30;5.77;;;7.90;1.00;;;;;;5013543;28;20060;-58
2022/11/24 05:58:07;;;;;;;8.33;5.47;;;7.70;1.00;;;;;;5012502;28;20042;-58
2022/11/24 06:00:34;;;;;;;7.03;5.40;;;7.60;1.00;;;;;;5011748;28;20437;-58
2022/11/24 06:03:00;;;;;;;7.03;5.27;;;7.80;1.00;;;;;;5020524;28;20040;-56
2022/11/24 06:05:27;;;;;;;8.53;6.03;;;7.70;1.00;;;;;;5031424;28;20434;-58
2022/11/24 06:07:53;;;;;;;7.03;5.07;;;7.50;1.00;;;;;;5019962;28;20038;-58
2022/11/24 06:10:20;;;;;;;7.90;5.57;;;7.60;1.00;;;;;;5012945;28;20038;-58
2022/11/24 06:12:46;;;;;;;8.53;5.70;;;7.70;1.00;;;;;;5012631;28;20388;-58
2022/11/24 06:15:12;;;;;;;8.83;6.37;;;7.70;1.00;;;;;;5013345;28;20029;-58
2022/11/24 06:17:38;;;;;;;9.73;6.07;;;7.80;1.00;;;;;;5021466;28;20488;-58
2022/11/24 06:20:06;;;;;;;7.70;5.90;;;7.80;1.00;;;;;;5032314;28;20495;-57
2022/11/24 06:22:32;;;;;;;11.77;6.67;;;7.80;1.00;;;;;;5024864;28;20060;-58
2022/11/24 06:24:57;;;;;;;9.97;6.40;;;7.50;1.00;;;;;;5026798;28;20022;-58
2022/11/24 06:27:24;;;;;;;9.50;6.20;;;7.50;1.00;;;;;;5012441;28;20113;-58
2022/11/24 06:29:49;;;;;;;8.90;6.60;;;7.60;1.00;;;;;;5016704;28;20028;-58
2022/11/24 06:32:15;;;;;;;11.63;6.97;;;7.50;1.00;;;;;;5031648;28;20033;-58
2022/11/24 06:34:40;;;;;;;11.45;6.43;;;7.50;1.00;;;;;;5032065;28;20032;-56
2022/11/24 06:37:06;;;;;;;10.50;6.57;;;7.60;1.00;;;;;;5030415;28;20108;-57
2022/11/24 06:39:32;;;;;;;9.17;6.53;;;7.40;1.00;;;;;;5031964;28;20109;-58
2022/11/24 06:41:57;;;;;;;9.23;5.90;;;7.50;1.00;;;;;;5025230;28;20033;-57
2022/11/24 06:44:23;;;;;;;9.07;6.50;;;7.60;1.00;;;;;;5032009;28;20542;-55
2022/11/24 06:46:49;;;;;;;9.27;5.80;;;7.50;1.00;;;;;;5017718;28;20026;-57
2022/11/24 06:49:14;;;;;;;10.97;6.73;;;7.50;1.00;;;;;;5031815;28;20139;-57
2022/11/24 06:51:41;;;;;;;10.57;6.10;;;7.70;1.00;;;;;;5023611;28;20022;-58
2022/11/24 06:54:08;;;;;;;7.40;5.87;;;7.70;1.00;;;;;;5031909;28;20039;-57
2022/11/24 06:56:33;;;;;;;8.10;5.43;;;7.60;1.00;;;;;;5028364;28;20025;-56
2022/11/24 06:59:00;;;;;;;11.93;5.93;;;7.50;1.00;;;;;;5026637;28;20037;-56
2022/11/24 07:01:27;;;;;;;9.43;5.63;;;7.50;1.00;;;;;;5011918;28;20376;-57
2022/11/24 07:03:54;;;;;;;9.47;5.50;;;7.30;1.00;;;;;;5015277;28;20418;-56
2022/11/24 07:06:21;;;;;;;9.40;5.70;;;7.50;1.00;;;;;;5025563;28;20325;-54
2022/11/24 07:08:47;;;;;;;8.93;5.90;;;7.30;1.00;;;;;;5031729;28;20069;-57
2022/11/24 07:11:20;;;;;;;9.77;5.23;;;7.60;1.00;;;;;;5027471;28;20021;-58
2022/11/24 07:13:46;;;;;;;8.23;5.47;;;7.40;1.00;;;;;;5031940;28;20034;-54
2022/11/24 07:16:17;;;;;;;9.60;5.57;;;7.30;1.00;;;;;;5026972;28;20026;-58
2022/11/24 07:18:44;;;;;;;8.07;5.47;;;7.20;1.00;;;;;;5031891;28;20428;-59
2022/11/24 07:21:40;;;;;;;7.90;5.40;;;7.30;1.00;;;;;;5024756;28;20018;-58
2022/11/24 07:24:06;;;;;;;11.97;5.70;;;7.30;1.00;;;;;;5025058;28;20112;-58
2022/11/24 07:26:36;;;;;;;8.50;5.73;;;7.30;1.00;;;;;;5024126;28;20053;-58
2022/11/24 07:29:02;;;;;;;17.87;5.50;;;7.30;1.00;;;;;;5031730;28;20034;-58
2022/11/24 07:31:28;;;;;;;9.10;5.37;;;7.30;1.00;;;;;;5023250;28;20021;-57
2022/11/24 07:33:54;;;;;;;8.97;4.83;;;7.30;1.00;;;;;;5032361;28;20041;-58
2022/11/24 07:36:20;;;;;;;8.10;5.10;;;7.30;1.00;;;;;;5026837;28;20383;-58
2022/11/24 07:38:46;;;;;;;10.03;5.37;;;7.50;1.00;;;;;;5035667;28;20025;-55
2022/11/24 07:41:13;;;;;;;9.27;5.43;;;7.20;1.00;;;;;;5027256;28;20026;-54
2022/11/24 07:43:39;;;;;;;8.77;4.40;;;7.40;1.00;;;;;;5035128;28;20058;-58
2022/11/24 07:46:09;;;;;;;10.30;5.23;;;7.40;1.00;;;;;;5027686;28;20121;-58
2022/11/24 07:48:34;;;;;;;7.03;4.93;;;7.40;1.00;;;;;;5027680;28;20030;-56
2022/11/24 07:51:03;;;;;;;7.83;4.70;;;7.50;1.00;;;;;;5028866;28;20034;-58
2022/11/24 07:53:29;;;;;;;11.17;4.97;;;7.40;1.00;;;;;;5033768;28;20028;-57
2022/11/24 07:55:57;;;;;;;7.27;4.73;;;7.50;1.00;;;;;;5028826;28;20100;-57
2022/11/24 07:58:22;;;;;;;7.13;4.33;;;7.40;1.00;;;;;;5013438;28;20045;-58
2022/11/24 08:00:48;;;;;;;7.10;4.37;;;7.50;1.00;;;;;;5015258;28;20102;-58
2022/11/24 08:03:14;;;;;;;16.23;5.63;;;7.50;1.00;;;;;;5014858;28;20037;-55
2022/11/24 08:05:40;;;;;;;8.37;4.47;;;7.70;1.00;;;;;;5018825;28;20036;-56
2022/11/24 08:08:05;;;;;;;5.90;3.87;;;7.60;1.00;;;;;;5033773;28;20021;-55
2022/11/24 08:10:31;;;;;;;5.30;4.27;;;7.50;1.00;;;;;;5028968;28;20033;-57
2022/11/24 08:13:00;;;;;;;5.20;3.87;;;7.70;1.00;;;;;;5028960;28;20026;-56
2022/11/24 08:15:26;;;;;;;8.80;4.43;;;7.80;1.00;;;;;;5023033;28;20033;-53
2022/11/24 08:17:52;;;;;;;9.70;4.00;;;7.90;1.00;;;;;;5028931;28;20029;-55
2022/11/24 08:20:18;;;;;;;10.00;4.50;;;8.00;1.00;;;;;;5020687;28;20117;-57
2022/11/24 08:22:59;;;;;;;11.63;4.23;;;8.00;1.00;;;;;;5022799;28;20026;-56
2022/11/24 08:25:30;;;;;;;5.87;4.40;;;8.00;1.00;;;;;;5007825;28;20037;-58
2022/11/24 08:27:56;;;;;;;8.20;4.30;;;8.10;1.00;;;;;;5028335;28;20026;-58
2022/11/24 08:30:22;;;;;;;10.70;4.60;;;8.10;1.00;;;;;;5023994;28;20029;-57
2022/11/24 08:32:48;;;;;;;13.37;4.57;;;8.10;1.00;;;;;;5016356;28;20146;-58
2022/11/24 08:35:13;;;;;;;13.10;4.53;;;8.20;1.00;;;;;;5017923;28;20363;-57
2022/11/24 08:37:39;;;;;;;11.77;4.43;;;8.20;1.00;;;;;;5032993;28;20170;-56
2022/11/24 08:40:05;;;;;;;25.57;5.17;;;8.20;1.00;;;;;;5034213;28;20030;-57
2022/11/24 08:42:31;;;;;;;19.13;5.17;;;8.20;1.00;;;;;;5032390;28;20049;-57
2022/11/24 08:44:56;;;;;;;6.00;3.77;;;8.30;1.00;;;;;;5022273;28;20073;-56
2022/11/24 08:47:22;;;;;;;13.10;5.00;;;8.40;1.00;;;;;;5032168;28;20084;-57
2022/11/24 08:49:48;;;;;;;16.17;4.80;;;8.40;1.00;;;;;;5034245;28;20124;-56
2022/11/24 08:52:15;;;;;;;13.07;5.07;;;8.50;1.00;;;;;;5033972;28;20024;-57
2022/11/24 08:54:43;;;;;;;11.82;5.25;;;8.60;1.00;;;;;;5025218;28;20037;-56
2022/11/24 08:57:09;;;;;;;10.05;4.05;;;8.60;1.00;;;;;;5034146;28;20052;-55
2022/11/24 08:59:34;;;;;;;26.83;5.73;;;8.60;1.00;;;;;;5024480;28;20049;-57
2022/11/24 09:02:00;;;;;;;10.65;4.07;;;8.60;1.00;;;;;;5012750;28;20026;-57
2022/11/24 09:04:25;;;;;;;15.67;5.17;;;8.70;1.00;;;;;;5021647;28;20098;-55
2022/11/24 09:06:51;;;;;;;7.63;4.10;;;8.70;1.00;;;;;;5034032;28;20029;-58
2022/11/24 09:09:17;;;;;;;12.83;4.80;;;8.80;1.00;;;;;;5019894;28;20021;-57
2022/11/24 09:11:42;;;;;;;12.37;5.20;;;8.80;1.00;;;;;;5033714;28;20026;-55
2022/11/24 09:14:08;;;;;;;4.47;4.07;;;8.80;1.00;;;;;;5018487;28;20037;-57
2022/11/24 09:16:33;;;;;;;8.80;3.67;;;8.80;1.00;;;;;;5022703;28;20376;-54
2022/11/24 09:19:02;;;;;;;6.45;3.80;;;8.90;1.00;;;;;;5019558;28;20103;-56
2022/11/24 09:21:29;;;;;;;6.25;3.40;;;8.90;1.00;;;;;;5033574;28;20121;-59
2022/11/24 09:23:56;;;;;;;6.88;3.88;;;9.00;1.00;;;;;;5033604;28;20427;-58
2022/11/24 09:26:24;;;;;;;13.00;4.95;;;9.00;1.00;;;;;;5019360;28;20014;-63
2022/11/24 09:28:53;;;;;;;9.95;4.22;;;9.00;1.00;;;;;;5015931;28;20424;-55
2022/11/24 09:31:20;;;;;;;10.88;4.50;;;9.10;1.00;;;;;;5020178;28;20446;-58
2022/11/24 09:33:46;;;;;;;14.52;5.05;;;9.10;1.00;;;;;;5032085;28;20428;-57
2022/11/24 09:36:12;;;;;;;6.82;3.78;;;9.20;1.00;;;;;;5033270;28;20090;-57
2022/11/24 09:38:38;;;;;;;6.10;3.60;;;9.20;1.00;;;;;;5033288;28;20116;-56
2022/11/24 09:41:10;;;;;;;5.15;3.30;;;9.20;1.00;;;;;;5033567;28;20021;-58
2022/11/24 09:43:55;;;;;;;7.35;3.83;;;9.20;1.00;;;;;;5033012;28;20053;-56
2022/11/24 09:46:30;;;;;;;;;;;9.30;1.00;;;;;;5022391;28;20025;-56
2022/11/24 09:48:57;;;;;;;7.63;3.22;;;9.30;1.00;;;;;;5033555;28;20312;-55
2022/11/24 09:51:28;;;;;;;8.48;3.58;;;9.40;1.00;;;;;;5033043;28;20043;-57
2022/11/24 09:54:04;;;;;;;10.60;4.38;;;9.40;1.00;;;;;;5033060;28;20427;-57
2022/11/24 09:56:34;;;;;;;17.63;3.92;;;9.50;1.00;;;;;;5032797;28;20502;-56
2022/11/24 09:59:05;;;;;;;8.23;4.10;;;9.50;1.00;;;;;;5014100;28;20030;-57
2022/11/24 10:01:38;;;;;;;6.60;3.80;;;9.60;1.00;;;;;;5023683;28;20029;-57
2022/11/24 10:04:19;;;;;;;8.45;3.60;;;9.60;1.00;;;;;;5018941;28;20013;-57
2022/11/24 10:07:06;;;;;;;5.00;3.17;;;9.70;1.00;;;;;;5032618;28;20022;-56
2022/11/24 10:09:50;;;;;;;10.63;4.47;;;9.70;1.00;;;;;;5020206;28;20175;-58
2022/11/24 10:12:37;;;;;;;9.50;4.10;;;9.80;1.00;;;;;;5018939;28;20050;-56
2022/11/24 10:15:20;;;;;;;8.95;4.63;;;9.80;1.00;;;;;;5021661;28;20046;-57
2022/11/24 10:18:07;;;;;;;10.93;4.80;;;9.90;1.00;;;;;;5016101;28;20392;-57
2022/11/24 10:20:54;;;;;;;8.20;5.03;;;9.90;1.00;;;;;;5011397;28;20041;-58
2022/11/24 10:23:50;;;;;;;8.32;3.85;;;9.90;1.00;;;;;;5009638;28;20110;-58
2022/11/24 10:26:35;;;;;;;12.75;4.75;;;9.90;1.00;;;;;;5009785;28;20491;-58
2022/11/24 10:29:06;;;;;;;12.02;3.88;;;9.90;1.00;;;;;;5011586;28;20014;-58
2022/11/24 10:31:35;;;;;;;11.60;4.10;;;10.00;1.00;;;;;;5016123;28;20440;-58
2022/11/24 10:34:27;;;;;;;7.18;4.03;;;10.10;1.00;;;;;;5015305;28;20042;-58
2022/11/24 10:37:03;;;;;;;18.02;3.67;;;10.10;1.00;;;;;;5018299;28;20017;-58
2022/11/24 10:39:49;;;;;;;8.85;3.53;;;10.20;1.00;;;;;;5030933;28;20486;-58
2022/11/24 10:42:26;;;;;;;9.93;3.75;;;10.20;1.00;;;;;;5030606;28;20423;-55
2022/11/24 10:52:09;;;;;;;4.63;3.38;;;10.40;1.00;;;;;;4999798;28;20037;-55
2022/11/24 10:54:35;;;;;;;13.48;3.00;;;10.40;1.00;;;;;;5032110;28;20048;-57
2022/11/24 10:57:01;;;;;;;8.30;3.50;;;10.50;1.00;;;;;;5032237;28;20025;-53
2022/11/24 10:59:29;;;;;;;22.05;3.97;;;10.50;1.00;;;;;;5032027;28;20029;-58
2022/11/24 11:01:55;;;;;;;30.60;5.53;;;10.60;1.00;;;;;;5015346;28;20022;-56
2022/11/24 11:04:28;;;;;;;15.35;3.90;;;10.60;1.00;;;;;;5031404;28;20467;-57
2022/11/24 11:07:15;;;;;;;14.68;3.85;;;10.70;1.00;;;;;;5031754;28;20089;-57
2022/11/24 11:09:40;;;;;;;5.90;2.80;;;10.70;1.00;;;;;;5007435;28;20095;-57
2022/11/24 11:12:26;;;;;;;9.20;2.95;;;10.80;1.00;;;;;;5026624;28;20025;-56
2022/11/24 11:14:51;;;;;;;12.45;4.68;;;10.90;1.00;;;;;;5007352;28;20044;-58
2022/11/24 11:17:35;;;;;;;9.75;3.05;;;11.00;1.00;;;;;;5031976;28;20515;-56
2022/11/24 11:20:26;;;;;;;8.27;3.17;;;10.90;1.00;;;;;;5031767;28;20034;-54
2022/11/24 11:22:53;;;;;;;4.38;2.47;;;11.00;1.00;;;;;;5018194;28;20021;-57
2022/11/24 11:25:21;;;;;;;4.43;2.40;;;11.00;1.00;;;;;;5031943;28;20065;-58
2022/11/24 11:27:47;;;;;;;5.40;3.17;;;11.00;1.00;;;;;;5032124;28;20026;-57
2022/11/24 11:30:25;;;;;;;4.80;2.78;;;11.10;1.00;;;;;;5030543;28;20060;-58
2022/11/24 11:33:00;;;;;;;3.65;2.92;;;11.10;1.00;;;;;;5019941;28;20029;-56
2022/11/24 11:35:28;;;;;;;6.55;3.35;;;11.10;1.00;;;;;;5023642;28;20022;-57
2022/11/24 11:38:01;;;;;;;7.70;2.90;;;11.20;1.00;;;;;;5026355;28;20037;-58
2022/11/24 11:40:29;;;;;;;3.40;2.60;;;11.20;1.00;;;;;;5031622;28;19928;-56
2022/11/24 11:43:12;;;;;;;3.85;2.47;;;11.30;1.00;;;;;;5019707;28;20084;-57
2022/11/24 11:45:44;;;;;;;4.97;2.50;;;11.30;1.00;;;;;;5031714;28;20101;-57
2022/11/24 11:48:31;;;;;;;6.45;2.67;;;11.40;1.00;;;;;;5031429;28;20030;-57
2022/11/24 11:51:02;;;;;;;3.63;2.20;;;11.40;1.00;;;;;;5031330;28;20112;-58
2022/11/24 11:53:48;;;;;;;7.00;3.47;;;11.40;1.00;;;;;;5021328;28;20079;-58
2022/11/24 11:56:35;;;;;;;10.20;5.28;;;11.40;1.00;;;;;;5031477;28;20156;-56
2022/11/24 11:59:13;;;;;;;6.45;4.32;;;11.40;1.00;;;;;;5031337;28;20053;-57
2022/11/24 12:02:18;;;;;;;7.10;4.30;;;11.50;1.00;;;;;;5031134;28;20026;-59
2022/11/24 12:05:04;;;;;;;8.55;3.80;;;11.50;1.00;;;;;;5022729;28;20043;-57
2022/11/24 12:07:35;;;;;;;6.35;4.05;;;11.50;1.00;;;;;;5024499;28;20098;-58
2022/11/24 12:10:23;;;;;;;5.90;4.30;;;11.50;1.00;;;;;;5012605;28;20113;-61
2022/11/24 12:12:57;;;;;;;7.15;4.30;;;11.60;1.00;;;;;;5008459;28;20026;-60
2022/11/24 12:15:39;;;;;;;7.18;4.63;;;11.70;1.00;;;;;;5021688;28;20065;-60
2022/11/24 12:18:05;;;;;;;6.60;4.82;;;11.60;1.00;;;;;;5031220;28;20093;-60
2022/11/24 12:20:55;;;;;;;6.97;4.72;;;11.60;1.00;;;;;;5034929;28;20108;-60
2022/11/24 12:23:27;;;;;;;6.32;3.88;;;11.60;1.00;;;;;;5032107;28;20467;-61
2022/11/24 12:26:01;;;;;;;8.18;4.40;;;11.70;1.00;;;;;;5027475;28;20112;-60
2022/11/24 12:28:45;;;;;;;6.72;4.00;;;11.80;1.00;;;;;;5033378;28;20108;-60
2022/11/24 12:31:16;;;;;;;9.25;4.80;;;11.90;1.00;;;;;;5034677;28;20029;-60
2022/11/24 12:33:47;;;;;;;8.05;4.50;;;11.80;1.00;;;;;;5034597;28;20030;-59
2022/11/24 12:36:24;;;;;;;9.75;5.03;;;11.80;1.00;;;;;;5020578;28;20423;-60
2022/11/24 12:39:26;;;;;;;5.82;4.45;;;11.80;1.00;;;;;;5025046;28;20419;-60
2022/11/24 12:42:07;;;;;;;7.05;4.32;;;11.80;1.00;;;;;;5033833;28;20034;-60
2022/11/24 12:44:51;;;;;;;5.45;3.88;;;11.90;1.00;;;;;;5034428;28;20175;-60
2022/11/24 12:47:35;;;;;;;8.23;5.80;;;11.90;1.00;;;;;;5011087;28;20416;-60
2022/11/24 12:50:24;;;;;;;7.80;5.35;;;11.90;1.00;;;;;;5034187;28;20112;-60
2022/11/24 12:52:59;;;;;;;9.95;5.93;;;11.90;1.00;;;;;;5025565;28;20116;-60
2022/11/24 12:55:26;;;;;;;11.05;7.05;;;11.90;1.00;;;;;;5029343;28;20034;-60
2022/11/24 12:58:04;;;;;;;19.98;9.45;;;11.90;1.00;;;;;;5014471;28;20021;-60
2022/11/24 13:00:43;;;;;;;9.60;7.85;;;11.90;1.00;;;;;;5032968;28;20483;-60
2022/11/24 13:03:08;;;;;;;12.88;8.20;;;12.00;1.00;;;;;;5030593;28;20088;-59
2022/11/24 13:05:55;;;;;;;15.13;8.82;;;12.20;1.00;;;;;;5032838;28;20025;-59
2022/11/24 13:08:21;;;;;;;12.25;8.25;;;12.10;1.00;;;;;;5034310;28;20029;-59
2022/11/24 13:10:47;;;;;;;12.90;8.07;;;12.10;1.00;;;;;;5034082;28;20442;-59
2022/11/24 13:13:14;;;;;;;11.45;7.05;;;12.20;1.00;;;;;;5020613;28;20184;-59
2022/11/24 13:16:14;;;;;;;12.35;8.48;;;12.20;1.00;;;;;;5031630;28;20510;-57
2022/11/24 13:18:51;;;;;;;13.45;8.68;;;12.20;1.00;;;;;;5029662;28;20072;-55
2022/11/24 13:21:35;;;;;;;10.63;7.80;;;12.20;1.00;;;;;;5034028;28;20044;-58